Nora, South Dakota
Current Conditions -  °F | °C
As of 10:15 AM on Thursday 29 Jan 2015 (Local Time) from KLRJ Reporting Station
Overcast Overcast  
Wind Chill: 24°   Ceiling: 3000
Heat Index: 34°   Visibility: 10mi
Dew Point: 27°   Wind: 15mph
Humidity: 75%   Direction: 330°NNW
Pressure: 30.38"   Gusts: 25mph
Location:  42.9925°N, 96.6362°W
Report Text: KLRJ 291615Z AUTO 33013G22KT 10SM OVC030 01/M03 A3038 RMK AO2
Loading
Personal Weather Stations






























Interactive Weather Map New forecast layout! Learn more

10-Day Weather Forecast

Advertisements
Track Severe Weather on mobile